MDSD/SDQ METAR and TAF weather

Enter ICAO airport designator
Station Type Date Time Source
MDSD METAR 2020/01/27 14:00 UTC NOAA

MDSD 271400Z 10004KT 9999 FEW018 26/22 Q1016


Station Type Date Time Source
MDSD Decoded METAR 2020/01/27 14:00 UTC NOAA

Las Americas, Dominican Republic (MDSD) 18-26N 069-40W
Jan 27, 2020 - 09:00 AM EST / 2020.01.27 1400 UTC
Wind: from the E (100 degrees) at 5 MPH (4 KT):0
Visibility: greater than 7 mile(s):0
Sky conditions: mostly clear
Temperature: 78 F (26 C)
Dew Point: 71 F (22 C)
Relative Humidity: 78%
Pressure (altimeter): 30.00 in. Hg (1016 hPa)
ob: MDSD 271400Z 10004KT 9999 FEW018 26/22 Q1016
cycle: 14

Station Type Date Time Source
MDSD TAF 2020/01/27 12:17 UTC NOAA

TAF MDSD 271000Z 2712/2812 03004KT 9999 SCT016
BECMG 2710/2712 09006KT

Example: see airport list